PILOTS ONLINE: 294    ATC ONLINE: 58

Location

IATA CIB
City Avalon
Country  United States
Latitude 33° 24' 17" N
Longitude 118° 24' 57" W
Elevation 1602 ft
Type Small Airport

Weather

METAR
2014/07/09 22:51
KAVX 092251Z AUTO 25011KT 10SM CLR 20/14 A2996 RMK AO2 SLP128 T02000144 $
TAF
No TAF available

Runways

04/22 3000 ft / 60 ft

Outbound flights

Inbound flights


Spotted incorrect airport information? Please login with your VATSIM ID.